createdAt,value
2018-09-20T00:02:13.364Z,17.54
2018-09-20T00:04:41.625Z,17.51
2018-09-20T00:07:09.971Z,17.47
2018-09-20T00:09:38.241Z,17.42
2018-09-20T00:12:06.574Z,17.40
2018-09-20T00:14:34.892Z,17.38
2018-09-20T00:17:03.173Z,17.38
2018-09-20T00:19:31.484Z,17.38
2018-09-20T00:21:59.791Z,17.36
2018-09-20T00:24:28.227Z,17.34
2018-09-20T00:26:56.553Z,17.33
2018-09-20T00:29:25.215Z,17.33
2018-09-20T00:31:53.556Z,17.32
2018-09-20T00:34:21.835Z,17.30
2018-09-20T00:36:50.314Z,17.28
2018-09-20T00:39:18.641Z,17.23
2018-09-20T00:41:46.940Z,17.22
2018-09-20T00:44:15.274Z,17.20
2018-09-20T00:46:43.589Z,17.16
2018-09-20T00:49:11.939Z,17.15
2018-09-20T00:51:40.295Z,17.13
2018-09-20T00:54:08.628Z,17.14
2018-09-20T00:56:36.953Z,17.13
2018-09-20T00:59:05.473Z,17.13
2018-09-20T01:01:33.817Z,17.13
2018-09-20T01:04:02.159Z,17.10
2018-09-20T01:06:30.482Z,17.06
2018-09-20T01:08:58.764Z,17.01
2018-09-20T01:11:27.218Z,16.99
2018-09-20T01:13:55.504Z,16.96
2018-09-20T01:16:23.855Z,16.94
2018-09-20T01:18:52.342Z,16.93
2018-09-20T01:21:20.673Z,16.88
2018-09-20T01:23:49.005Z,16.84
2018-09-20T01:26:18.105Z,16.82
2018-09-20T01:28:46.496Z,16.79
2018-09-20T01:31:14.786Z,16.73
2018-09-20T01:33:43.083Z,16.70
2018-09-20T01:36:12.351Z,16.65
2018-09-20T01:38:40.652Z,16.59
2018-09-20T01:41:08.981Z,16.56
2018-09-20T01:43:37.284Z,16.51
2018-09-20T01:46:06.013Z,16.46
2018-09-20T01:48:34.281Z,16.41
2018-09-20T01:51:02.579Z,16.40
2018-09-20T01:53:30.957Z,16.37
2018-09-20T01:55:59.276Z,16.35
2018-09-20T01:58:27.619Z,16.29
2018-09-20T02:00:55.866Z,16.25
2018-09-20T02:03:24.265Z,16.18
2018-09-20T02:05:52.561Z,16.15
2018-09-20T02:08:21.005Z,16.14
2018-09-20T02:10:49.310Z,16.13
2018-09-20T02:13:17.927Z,16.11
2018-09-20T02:15:46.239Z,16.09
2018-09-20T02:18:14.534Z,16.08
2018-09-20T02:20:42.910Z,16.05
2018-09-20T02:23:11.231Z,16.03
2018-09-20T02:25:39.612Z,16.04
2018-09-20T02:28:08.030Z,16.01
2018-09-20T02:31:16.306Z,16.01
2018-09-20T02:33:44.626Z,15.98
2018-09-20T02:36:12.928Z,15.95
2018-09-20T02:38:41.529Z,15.92
2018-09-20T02:41:10.424Z,15.92
2018-09-20T02:43:38.792Z,15.90
2018-09-20T02:46:07.124Z,15.87
2018-09-20T02:48:35.508Z,15.86
2018-09-20T02:51:03.893Z,15.81
2018-09-20T02:53:32.357Z,15.76
2018-09-20T02:56:00.663Z,15.74
2018-09-20T02:58:29.007Z,15.75
2018-09-20T03:00:57.279Z,15.73
2018-09-20T03:03:25.835Z,15.72
2018-09-20T03:05:54.147Z,15.70
2018-09-20T03:08:22.482Z,15.66
2018-09-20T03:10:50.786Z,15.62
2018-09-20T03:13:19.078Z,15.57
2018-09-20T03:15:47.345Z,15.55
2018-09-20T03:18:15.684Z,15.57
2018-09-20T03:20:44.024Z,15.56
2018-09-20T03:23:12.419Z,15.52
2018-09-20T03:25:40.720Z,15.50
2018-09-20T03:28:09.075Z,15.46
2018-09-20T03:30:37.451Z,15.44
2018-09-20T03:33:06.017Z,15.41
2018-09-20T03:35:34.380Z,15.38
2018-09-20T03:38:02.686Z,15.35
2018-09-20T03:40:31.035Z,15.31
2018-09-20T03:42:59.327Z,15.31
2018-09-20T03:45:27.631Z,15.26
2018-09-20T03:47:55.945Z,15.22
2018-09-20T03:50:24.273Z,15.21
2018-09-20T03:52:52.595Z,15.20
2018-09-20T03:55:20.934Z,15.21
2018-09-20T03:57:49.262Z,15.22
2018-09-20T04:00:17.555Z,15.21
2018-09-20T04:02:45.895Z,15.19
2018-09-20T04:05:14.222Z,15.16
2018-09-20T04:07:42.593Z,15.16
2018-09-20T04:10:10.951Z,15.12
2018-09-20T04:12:39.521Z,15.08
2018-09-20T04:15:08.049Z,15.05
2018-09-20T04:17:36.357Z,15.04
2018-09-20T04:20:05.240Z,15.05
2018-09-20T04:22:33.584Z,15.10
2018-09-20T04:25:01.956Z,15.10
2018-09-20T04:27:30.215Z,15.08
2018-09-20T04:29:58.591Z,15.08
2018-09-20T04:32:26.905Z,15.07
2018-09-20T04:34:55.182Z,15.07
2018-09-20T04:37:23.537Z,15.02
2018-09-20T04:39:51.843Z,14.98
2018-09-20T04:42:20.208Z,14.97
2018-09-20T04:44:48.570Z,14.97
2018-09-20T04:47:16.852Z,14.98
2018-09-20T04:49:45.265Z,14.99
2018-09-20T04:52:13.552Z,14.99
2018-09-20T04:54:41.882Z,15.00
2018-09-20T04:57:10.275Z,14.99
2018-09-20T04:59:39.221Z,14.96
2018-09-20T05:02:07.579Z,14.93
2018-09-20T05:04:35.959Z,14.95
2018-09-20T05:07:04.264Z,14.94
2018-09-20T05:09:32.696Z,14.95
2018-09-20T05:12:00.949Z,14.97
2018-09-20T05:14:29.253Z,14.98
2018-09-20T05:16:57.515Z,14.98
2018-09-20T05:19:25.883Z,14.99
2018-09-20T05:21:54.185Z,15.03
2018-09-20T05:24:22.453Z,15.04
2018-09-20T05:26:57.524Z,15.06
2018-09-20T05:29:25.925Z,15.09
2018-09-20T05:31:54.243Z,15.13
2018-09-20T05:34:22.504Z,15.18
2018-09-20T05:36:50.840Z,15.24
2018-09-20T05:39:19.143Z,15.29
2018-09-20T05:41:48.121Z,15.33
2018-09-20T05:44:16.458Z,15.37
2018-09-20T05:46:44.831Z,15.42
2018-09-20T05:49:13.156Z,15.49
2018-09-20T05:51:41.526Z,15.55
2018-09-20T05:54:09.821Z,15.61
2018-09-20T05:56:38.376Z,15.65
2018-09-20T05:59:06.699Z,15.69
2018-09-20T06:01:35.117Z,15.74
2018-09-20T06:04:03.449Z,15.79
2018-09-20T06:06:31.754Z,15.84
2018-09-20T06:09:00.138Z,15.85
2018-09-20T06:11:28.398Z,15.91
2018-09-20T06:13:56.733Z,15.99
2018-09-20T06:16:25.019Z,16.08
2018-09-20T06:18:53.349Z,16.15
2018-09-20T06:21:21.644Z,16.21
2018-09-20T06:23:49.984Z,16.31
2018-09-20T06:26:18.298Z,16.38
2018-09-20T06:28:46.718Z,16.44
2018-09-20T06:31:15.273Z,16.50
2018-09-20T06:33:43.573Z,16.56
2018-09-20T06:36:11.873Z,16.63
2018-09-20T06:38:40.288Z,16.70
2018-09-20T06:41:08.700Z,16.79
2018-09-20T06:43:37.098Z,16.87
2018-09-20T06:46:05.452Z,16.94
2018-09-20T06:48:33.793Z,17.02
2018-09-20T06:51:02.199Z,17.11
2018-09-20T06:53:30.548Z,17.24
2018-09-20T06:55:58.833Z,17.35
2018-09-20T06:58:27.192Z,17.51
2018-09-20T07:00:55.613Z,17.65
2018-09-20T07:03:23.973Z,17.82
2018-09-20T07:05:52.325Z,17.96
2018-09-20T07:08:20.728Z,18.10
2018-09-20T07:10:49.069Z,18.22
2018-09-20T07:13:17.369Z,18.36
2018-09-20T07:15:45.706Z,18.50
2018-09-20T07:18:14.037Z,18.59
2018-09-20T07:20:42.366Z,18.69
2018-09-20T07:23:10.663Z,18.79
2018-09-20T07:25:38.977Z,18.88
2018-09-20T07:28:07.327Z,18.95
2018-09-20T07:30:35.637Z,19.04
2018-09-20T07:33:03.946Z,19.11
2018-09-20T07:35:32.262Z,19.21
2018-09-20T07:38:00.585Z,19.27
2018-09-20T07:40:28.917Z,19.32
2018-09-20T07:42:57.238Z,19.42
2018-09-20T07:45:25.552Z,19.53
2018-09-20T07:47:53.911Z,19.61
2018-09-20T07:50:22.305Z,19.68
2018-09-20T07:52:50.664Z,19.78
2018-09-20T07:55:19.000Z,19.87
2018-09-20T07:57:47.329Z,19.89
2018-09-20T08:00:15.661Z,19.91
2018-09-20T08:02:43.920Z,19.94
2018-09-20T08:05:12.370Z,20.00
2018-09-20T08:07:40.764Z,20.09
2018-09-20T08:10:09.132Z,20.32
2018-09-20T08:12:37.438Z,20.61
2018-09-20T08:15:06.476Z,20.89
2018-09-20T08:17:34.775Z,21.05
2018-09-20T08:20:03.212Z,21.11
2018-09-20T08:22:31.555Z,21.10
2018-09-20T08:24:59.881Z,21.09
2018-09-20T08:27:28.166Z,21.10
2018-09-20T08:29:56.473Z,21.11
2018-09-20T08:32:24.772Z,21.06
2018-09-20T08:34:53.074Z,21.03
2018-09-20T08:37:21.398Z,21.03
2018-09-20T08:39:49.654Z,21.00
2018-09-20T08:42:18.047Z,20.98
2018-09-20T08:44:46.353Z,20.86
2018-09-20T08:47:14.674Z,20.74
2018-09-20T08:49:43.072Z,20.66
2018-09-20T08:52:11.400Z,20.59
2018-09-20T08:54:39.725Z,20.53
2018-09-20T08:57:08.100Z,20.53
2018-09-20T08:59:36.355Z,20.54
2018-09-20T09:02:04.709Z,20.53
2018-09-20T09:04:33.049Z,20.59
2018-09-20T09:07:01.436Z,20.69
2018-09-20T09:09:29.780Z,20.81
2018-09-20T09:11:58.151Z,20.90
2018-09-20T09:14:26.485Z,20.98
2018-09-20T09:16:54.777Z,21.13
2018-09-20T09:19:23.062Z,21.17
2018-09-20T09:21:51.338Z,21.18
2018-09-20T09:24:19.660Z,21.22
2018-09-20T09:26:47.950Z,21.25
2018-09-20T09:29:16.228Z,21.29
2018-09-20T09:31:44.507Z,21.38
2018-09-20T09:34:12.926Z,21.46
2018-09-20T09:36:41.381Z,21.57
2018-09-20T09:39:11.341Z,21.71
2018-09-20T09:41:39.654Z,21.83
2018-09-20T09:44:07.982Z,21.89
2018-09-20T09:46:36.327Z,22.02
2018-09-20T09:49:04.656Z,22.16
2018-09-20T09:51:32.963Z,22.26
2018-09-20T09:54:01.308Z,22.34
2018-09-20T09:56:30.401Z,22.46
2018-09-20T09:58:58.715Z,22.53
2018-09-20T10:01:27.080Z,22.51
2018-09-20T10:03:55.373Z,22.51
2018-09-20T10:06:23.711Z,22.57
2018-09-20T10:08:52.011Z,22.65
2018-09-20T10:11:20.345Z,22.69
2018-09-20T10:13:48.829Z,22.69
2018-09-20T10:16:17.065Z,22.69
2018-09-20T10:18:45.346Z,22.71
2018-09-20T10:21:13.678Z,22.70
2018-09-20T10:23:41.972Z,22.78
2018-09-20T10:26:10.307Z,22.88
2018-09-20T10:28:38.649Z,22.97
2018-09-20T10:31:06.968Z,22.98
2018-09-20T10:33:35.280Z,23.01
2018-09-20T10:36:03.716Z,23.06
2018-09-20T10:38:32.019Z,23.15
2018-09-20T10:41:00.890Z,23.30
2018-09-20T10:43:29.199Z,23.48
2018-09-20T10:45:57.617Z,23.74
2018-09-20T10:48:25.941Z,23.85
2018-09-20T10:50:54.255Z,23.86
2018-09-20T10:53:22.571Z,23.77
2018-09-20T10:55:50.920Z,23.65
2018-09-20T10:58:19.233Z,23.52
2018-09-20T11:00:47.592Z,23.46
2018-09-20T11:03:15.939Z,23.50
2018-09-20T11:05:44.317Z,23.59
2018-09-20T11:08:12.695Z,23.65
2018-09-20T11:10:41.022Z,23.77
2018-09-20T11:13:09.344Z,23.83
2018-09-20T11:15:37.678Z,23.89
2018-09-20T11:18:06.002Z,23.89
2018-09-20T11:20:34.299Z,23.75
2018-09-20T11:23:02.674Z,23.67
2018-09-20T11:25:31.040Z,23.63
2018-09-20T11:27:59.376Z,23.62
2018-09-20T11:30:27.696Z,23.65
2018-09-20T11:32:56.033Z,23.68
2018-09-20T11:35:24.328Z,23.71
2018-09-20T11:37:52.715Z,23.72
2018-09-20T11:40:21.070Z,23.76
2018-09-20T11:42:49.379Z,23.82
2018-09-20T11:45:17.679Z,23.91
2018-09-20T11:47:46.199Z,23.96
2018-09-20T11:50:14.496Z,23.96
2018-09-20T11:52:42.813Z,24.00
2018-09-20T11:55:11.125Z,24.00
2018-09-20T11:57:39.497Z,24.00
2018-09-20T12:00:07.957Z,23.99
2018-09-20T12:02:36.367Z,23.93
2018-09-20T12:05:04.700Z,23.93
2018-09-20T12:07:33.083Z,23.96
2018-09-20T12:10:02.597Z,23.95
2018-09-20T12:12:30.875Z,23.99
2018-09-20T12:14:59.152Z,24.01
2018-09-20T12:17:27.517Z,24.02
2018-09-20T12:19:55.870Z,23.99
2018-09-20T12:22:24.163Z,23.95
2018-09-20T12:24:52.454Z,23.88
2018-09-20T12:27:20.783Z,23.85
2018-09-20T12:29:49.093Z,23.88
2018-09-20T12:32:17.484Z,23.85
2018-09-20T12:34:45.681Z,23.90
2018-09-20T12:37:14.013Z,23.91
2018-09-20T12:39:42.353Z,23.96
2018-09-20T12:42:10.707Z,23.99
2018-09-20T12:44:39.105Z,23.99
2018-09-20T12:47:07.434Z,23.99
2018-09-20T12:49:35.754Z,23.96
2018-09-20T12:52:04.105Z,23.97
2018-09-20T12:54:32.502Z,23.98
2018-09-20T12:57:00.849Z,24.02
2018-09-20T12:59:29.181Z,24.10
2018-09-20T13:01:57.493Z,24.08
2018-09-20T13:04:26.053Z,24.08
2018-09-20T13:06:54.411Z,24.06
2018-09-20T13:09:22.762Z,24.08
2018-09-20T13:11:51.093Z,24.09
2018-09-20T13:14:19.535Z,24.08
2018-09-20T13:16:47.874Z,24.08
2018-09-20T13:19:16.295Z,24.12
2018-09-20T13:21:44.650Z,24.11
2018-09-20T13:24:12.987Z,24.18
2018-09-20T13:26:41.353Z,24.21
2018-09-20T13:29:09.672Z,24.23
2018-09-20T13:31:38.023Z,24.26
2018-09-20T13:34:06.389Z,24.26
2018-09-20T13:36:34.847Z,24.22
2018-09-20T13:39:03.537Z,24.20
2018-09-20T13:41:31.908Z,24.14
2018-09-20T13:44:00.287Z,24.14
2018-09-20T13:46:28.652Z,24.15
2018-09-20T13:48:56.989Z,24.17
2018-09-20T13:51:25.319Z,24.21
2018-09-20T13:53:54.014Z,24.28
2018-09-20T13:56:22.427Z,24.33
2018-09-20T13:58:50.860Z,24.38
2018-09-20T14:01:19.251Z,24.42
2018-09-20T14:03:47.976Z,24.43
2018-09-20T14:06:16.372Z,24.46
2018-09-20T14:08:44.741Z,24.50
2018-09-20T14:11:13.085Z,24.48
2018-09-20T14:13:41.446Z,24.43
2018-09-20T14:16:09.850Z,24.41
2018-09-20T14:18:38.221Z,24.39
2018-09-20T14:21:07.041Z,24.37
2018-09-20T14:23:35.430Z,24.35
2018-09-20T14:26:03.761Z,24.30
2018-09-20T14:28:32.087Z,24.25
2018-09-20T14:31:00.456Z,24.26
2018-09-20T14:33:28.927Z,24.25
2018-09-20T14:35:57.271Z,24.23
2018-09-20T14:38:25.593Z,24.26
2018-09-20T14:40:53.955Z,24.22
2018-09-20T14:43:22.405Z,24.25
2018-09-20T14:45:50.757Z,24.28
2018-09-20T14:48:19.160Z,24.28
2018-09-20T14:50:47.545Z,24.26
2018-09-20T14:53:16.035Z,24.30
2018-09-20T14:55:44.359Z,24.28
2018-09-20T14:58:12.760Z,24.25
2018-09-20T15:00:41.226Z,24.22
2018-09-20T15:03:09.568Z,24.26
2018-09-20T15:05:37.979Z,24.26
2018-09-20T15:08:06.378Z,24.26
2018-09-20T15:10:34.758Z,24.26
2018-09-20T15:13:03.118Z,24.23
2018-09-20T15:15:31.466Z,24.19
2018-09-20T15:17:59.784Z,24.14
2018-09-20T15:20:28.272Z,24.13
2018-09-20T15:22:56.639Z,24.11
2018-09-20T15:25:24.989Z,24.09
2018-09-20T15:27:53.344Z,24.06
2018-09-20T15:30:21.710Z,24.03
2018-09-20T15:32:50.028Z,24.02
2018-09-20T15:35:18.477Z,23.98
2018-09-20T15:37:46.864Z,23.96
2018-09-20T15:40:15.415Z,23.96
2018-09-20T15:42:43.762Z,23.95
2018-09-20T15:45:12.118Z,23.95
2018-09-20T15:47:40.486Z,23.95
2018-09-20T15:50:08.838Z,23.93
2018-09-20T15:52:37.203Z,23.90
2018-09-20T15:55:05.647Z,23.90
2018-09-20T15:57:33.971Z,23.89
2018-09-20T16:00:02.366Z,23.87
2018-09-20T16:02:30.740Z,23.85
2018-09-20T16:04:59.166Z,23.82
2018-09-20T16:07:27.551Z,23.79
2018-09-20T16:09:55.917Z,23.77
2018-09-20T16:12:24.306Z,23.78
2018-09-20T16:14:52.708Z,23.83
2018-09-20T16:17:21.187Z,23.82
2018-09-20T16:19:49.562Z,23.77
2018-09-20T16:22:17.918Z,23.74
2018-09-20T16:24:46.319Z,23.74
2018-09-20T16:27:14.692Z,23.71
2018-09-20T16:29:58.829Z,23.67
2018-09-20T16:32:56.258Z,23.63
2018-09-20T16:35:32.281Z,23.60
2018-09-20T16:38:16.778Z,23.55
2018-09-20T16:40:47.319Z,23.49
2018-09-20T16:43:15.657Z,23.41
2018-09-20T16:45:43.999Z,23.35
2018-09-20T16:48:12.406Z,23.29
2018-09-20T16:50:40.733Z,23.23
2018-09-20T16:53:09.128Z,23.17
2018-09-20T16:55:37.481Z,23.09
2018-09-20T16:58:05.827Z,23.02
2018-09-20T17:00:34.170Z,22.97
2018-09-20T17:03:02.551Z,22.93
2018-09-20T17:05:32.052Z,22.88
2018-09-20T17:08:00.614Z,22.82
2018-09-20T17:10:29.004Z,22.77
2018-09-20T17:12:57.398Z,22.71
2018-09-20T17:15:25.773Z,22.62
2018-09-20T17:17:54.167Z,22.54
2018-09-20T17:20:22.756Z,22.46
2018-09-20T17:22:51.122Z,22.37
2018-09-20T17:25:19.562Z,22.30
2018-09-20T17:27:47.922Z,22.23
2018-09-20T17:30:16.363Z,22.13
2018-09-20T17:32:44.705Z,22.02
2018-09-20T17:35:13.893Z,21.91
2018-09-20T17:37:44.015Z,21.81
2018-09-20T17:40:14.051Z,21.72
2018-09-20T17:42:43.913Z,21.63
2018-09-20T17:45:12.299Z,21.56
2018-09-20T17:47:40.646Z,21.49
2018-09-20T17:50:08.989Z,21.40
2018-09-20T17:52:38.237Z,21.34
2018-09-20T17:55:07.524Z,21.27
2018-09-20T17:57:37.114Z,21.20
2018-09-20T18:00:05.494Z,21.14
2018-09-20T18:02:33.901Z,21.08
2018-09-20T18:05:02.259Z,20.99
2018-09-20T18:07:30.555Z,20.92
2018-09-20T18:09:58.857Z,20.84
2018-09-20T18:12:27.182Z,20.77
2018-09-20T18:14:55.535Z,20.70
2018-09-20T18:17:23.885Z,20.64
2018-09-20T18:19:52.289Z,20.58
2018-09-20T18:22:20.683Z,20.54
2018-09-20T18:24:48.999Z,20.47
2018-09-20T18:27:17.343Z,20.42
2018-09-20T18:29:45.729Z,20.38
2018-09-20T18:32:14.079Z,20.34
2018-09-20T18:34:42.432Z,20.31
2018-09-20T18:37:10.977Z,20.25
2018-09-20T18:39:39.373Z,20.21
2018-09-20T18:42:07.701Z,20.19
2018-09-20T18:44:36.053Z,20.20
2018-09-20T18:47:04.476Z,20.18
2018-09-20T18:49:32.843Z,20.15
2018-09-20T18:52:01.202Z,20.12
2018-09-20T18:54:29.558Z,20.11
2018-09-20T18:56:58.009Z,20.06
2018-09-20T18:59:26.365Z,20.00
2018-09-20T19:01:55.605Z,19.95
2018-09-20T19:04:23.951Z,19.86
2018-09-20T19:06:52.326Z,19.77
2018-09-20T19:09:20.766Z,19.72
2018-09-20T19:11:49.142Z,19.66
2018-09-20T19:14:17.519Z,19.60
2018-09-20T19:16:45.899Z,19.53
2018-09-20T19:19:14.304Z,19.47
2018-09-20T19:21:42.709Z,19.42
2018-09-20T19:24:11.068Z,19.40
2018-09-20T19:26:39.445Z,19.36
2018-09-20T19:29:07.794Z,19.34
2018-09-20T19:31:36.181Z,19.29
2018-09-20T19:34:04.564Z,19.25
2018-09-20T19:36:32.985Z,19.24
2018-09-20T19:39:01.386Z,19.19
2018-09-20T19:41:29.759Z,19.19
2018-09-20T19:43:58.093Z,19.17
2018-09-20T19:46:26.485Z,19.14
2018-09-20T19:48:54.900Z,19.11
2018-09-20T19:51:23.275Z,19.07
2018-09-20T19:53:51.630Z,19.04
2018-09-20T19:56:20.045Z,19.02
2018-09-20T19:58:48.413Z,19.00
2018-09-20T20:01:16.761Z,18.96
2018-09-20T20:03:45.158Z,18.94
2018-09-20T20:06:13.502Z,18.94
2018-09-20T20:08:41.895Z,18.92
2018-09-20T20:11:10.233Z,18.91
2018-09-20T20:13:38.611Z,18.91
2018-09-20T20:16:07.034Z,18.90
2018-09-20T20:18:35.377Z,18.90
2018-09-20T20:21:03.705Z,18.88
2018-09-20T20:23:32.033Z,18.86
2018-09-20T20:26:00.708Z,18.85
2018-09-20T20:28:29.062Z,18.86
2018-09-20T20:30:57.384Z,18.90
2018-09-20T20:33:25.769Z,18.90
2018-09-20T20:35:54.286Z,18.90
2018-09-20T20:38:22.656Z,18.93
2018-09-20T20:40:50.987Z,18.93
2018-09-20T20:43:19.411Z,18.91
2018-09-20T20:45:47.738Z,18.90
2018-09-20T20:48:16.058Z,18.91
2018-09-20T20:50:44.377Z,18.89
2018-09-20T20:53:12.735Z,18.89
2018-09-20T20:55:41.105Z,18.87
2018-09-20T20:58:09.636Z,18.86
2018-09-20T21:00:37.968Z,18.83
2018-09-20T21:03:06.449Z,18.78
2018-09-20T21:05:34.842Z,18.75
2018-09-20T21:08:03.193Z,18.73
2018-09-20T21:10:31.537Z,18.69
2018-09-20T21:12:59.908Z,18.67
2018-09-20T21:15:28.255Z,18.62
2018-09-20T21:17:56.646Z,18.61
2018-09-20T21:20:24.985Z,18.58
2018-09-20T21:22:53.323Z,18.54
2018-09-20T21:25:21.691Z,18.52
2018-09-20T21:27:50.152Z,18.50
2018-09-20T21:30:18.436Z,18.46
2018-09-20T21:32:46.798Z,18.43
2018-09-20T21:35:15.193Z,18.40
2018-09-20T21:37:43.521Z,18.36
2018-09-20T21:40:11.901Z,18.35
2018-09-20T21:42:40.263Z,18.35
2018-09-20T21:45:08.792Z,18.34
2018-09-20T21:47:37.129Z,18.34
2018-09-20T21:50:05.474Z,18.34
2018-09-20T21:52:33.795Z,18.34
2018-09-20T21:55:02.148Z,18.37
2018-09-20T21:57:30.469Z,18.39
2018-09-20T21:59:58.971Z,18.40
2018-09-20T22:02:32.638Z,18.41
2018-09-20T22:05:00.988Z,18.41
2018-09-20T22:07:29.379Z,18.43
2018-09-20T22:09:57.728Z,18.45
2018-09-20T22:12:26.102Z,18.45
2018-09-20T22:14:54.479Z,18.48
2018-09-20T22:17:22.873Z,18.51
2018-09-20T22:19:51.183Z,18.56
2018-09-20T22:22:19.575Z,18.60
2018-09-20T22:24:47.890Z,18.64
2018-09-20T22:27:16.251Z,18.64
2018-09-20T22:29:44.628Z,18.65
2018-09-20T22:32:12.995Z,18.64
2018-09-20T22:34:41.441Z,18.61
2018-09-20T22:37:09.759Z,18.58
2018-09-20T22:39:38.176Z,18.55
2018-09-20T22:42:06.494Z,18.53
2018-09-20T22:44:34.828Z,18.52
2018-09-20T22:47:03.181Z,18.52
2018-09-20T22:52:13.865Z,18.52
2018-09-20T22:54:42.338Z,18.52
2018-09-20T22:57:10.702Z,18.54
2018-09-20T22:59:39.037Z,18.58
2018-09-20T23:02:10.550Z,18.59
2018-09-20T23:04:38.938Z,18.58
2018-09-20T23:07:07.622Z,18.54
2018-09-20T23:09:36.272Z,18.52
2018-09-20T23:12:04.701Z,18.48
2018-09-20T23:14:33.396Z,18.45
2018-09-20T23:17:01.793Z,18.43
2018-09-20T23:19:30.152Z,18.45
2018-09-20T23:21:58.496Z,18.49
2018-09-20T23:24:26.852Z,18.49
2018-09-20T23:26:55.226Z,18.51
2018-09-20T23:29:23.614Z,18.56
2018-09-20T23:31:52.052Z,18.60
2018-09-20T23:34:20.388Z,18.64
2018-09-20T23:36:48.738Z,18.69
2018-09-20T23:39:17.209Z,18.74
2018-09-20T23:41:45.583Z,18.79
2018-09-20T23:44:13.945Z,18.84
2018-09-20T23:46:42.321Z,18.90
2018-09-20T23:49:10.710Z,18.92
2018-09-20T23:51:39.080Z,18.95
2018-09-20T23:54:07.400Z,18.97
2018-09-20T23:56:35.779Z,19.02
2018-09-20T23:59:04.185Z,19.02
